sensor_id;sensor_type;location;lat;lon;timestamp;temperature;humidity
43414;DHT22;29013;49.676;8.606;2022-08-21T00:00:51;19.4;87.4
43414;DHT22;29013;49.676;8.606;2022-08-21T00:06:17;19.3;87.7
43414;DHT22;29013;49.676;8.606;2022-08-21T00:11:45;19.3;88.0
43414;DHT22;29013;49.676;8.606;2022-08-21T00:17:11;19.1;89.2
43414;DHT22;29013;49.676;8.606;2022-08-21T00:22:37;19.0;89.5
43414;DHT22;29013;49.676;8.606;2022-08-21T00:28:06;19.0;89.7
43414;DHT22;29013;49.676;8.606;2022-08-21T00:33:33;19.0;88.9
43414;DHT22;29013;49.676;8.606;2022-08-21T00:38:56;19.0;89.5
43414;DHT22;29013;49.676;8.606;2022-08-21T00:44:23;19.0;89.6
43414;DHT22;29013;49.676;8.606;2022-08-21T00:49:50;18.9;90.4
43414;DHT22;29013;49.676;8.606;2022-08-21T00:55:18;18.8;90.3
43414;DHT22;29013;49.676;8.606;2022-08-21T01:00:46;18.8;90.2
43414;DHT22;29013;49.676;8.606;2022-08-21T01:06:10;18.7;90.3
43414;DHT22;29013;49.676;8.606;2022-08-21T01:11:38;18.7;90.5
43414;DHT22;29013;49.676;8.606;2022-08-21T01:17:09;18.6;90.6
43414;DHT22;29013;49.676;8.606;2022-08-21T01:22:36;18.6;90.8
43414;DHT22;29013;49.676;8.606;2022-08-21T01:28:02;18.5;90.9
43414;DHT22;29013;49.676;8.606;2022-08-21T01:33:29;18.4;91.2
43414;DHT22;29013;49.676;8.606;2022-08-21T01:38:55;18.4;91.5
43414;DHT22;29013;49.676;8.606;2022-08-21T01:44:25;18.4;91.7
43414;DHT22;29013;49.676;8.606;2022-08-21T01:49:48;18.3;91.6
43414;DHT22;29013;49.676;8.606;2022-08-21T01:55:20;18.3;91.8
43414;DHT22;29013;49.676;8.606;2022-08-21T02:00:55;18.2;91.8
43414;DHT22;29013;49.676;8.606;2022-08-21T02:06:20;18.2;92.0
43414;DHT22;29013;49.676;8.606;2022-08-21T02:11:50;18.1;92.3
43414;DHT22;29013;49.676;8.606;2022-08-21T02:17:26;18.0;92.3
43414;DHT22;29013;49.676;8.606;2022-08-21T02:23:05;18.1;92.4
43414;DHT22;29013;49.676;8.606;2022-08-21T02:28:29;18.1;92.3
43414;DHT22;29013;49.676;8.606;2022-08-21T02:33:58;18.0;92.5
43414;DHT22;29013;49.676;8.606;2022-08-21T02:39:27;17.9;93.1
43414;DHT22;29013;49.676;8.606;2022-08-21T02:44:56;17.9;92.8
43414;DHT22;29013;49.676;8.606;2022-08-21T02:50:29;17.8;92.8
43414;DHT22;29013;49.676;8.606;2022-08-21T02:55:56;17.8;93.1
43414;DHT22;29013;49.676;8.606;2022-08-21T03:01:23;17.8;93.1
43414;DHT22;29013;49.676;8.606;2022-08-21T03:06:50;17.7;93.3
43414;DHT22;29013;49.676;8.606;2022-08-21T03:12:18;17.6;93.7
43414;DHT22;29013;49.676;8.606;2022-08-21T03:17:46;17.5;93.7
43414;DHT22;29013;49.676;8.606;2022-08-21T03:23:15;17.5;94.0
43414;DHT22;29013;49.676;8.606;2022-08-21T03:28:43;17.5;93.9
43414;DHT22;29013;49.676;8.606;2022-08-21T03:34:22;17.5;94.1
43414;DHT22;29013;49.676;8.606;2022-08-21T03:39:47;17.4;94.4
43414;DHT22;29013;49.676;8.606;2022-08-21T03:45:19;17.4;94.5
43414;DHT22;29013;49.676;8.606;2022-08-21T03:50:45;17.1;95.7
43414;DHT22;29013;49.676;8.606;2022-08-21T03:56:09;17.0;95.6
43414;DHT22;29013;49.676;8.606;2022-08-21T04:01:36;17.0;95.8
43414;DHT22;29013;49.676;8.606;2022-08-21T04:07:00;17.0;95.9
43414;DHT22;29013;49.676;8.606;2022-08-21T04:12:28;16.9;96.3
43414;DHT22;29013;49.676;8.606;2022-08-21T04:17:56;16.8;96.9
43414;DHT22;29013;49.676;8.606;2022-08-21T04:23:22;16.8;96.4
43414;DHT22;29013;49.676;8.606;2022-08-21T04:28:48;16.8;96.5
43414;DHT22;29013;49.676;8.606;2022-08-21T04:34:09;16.8;96.6
43414;DHT22;29013;49.676;8.606;2022-08-21T04:39:36;16.7;96.6
43414;DHT22;29013;49.676;8.606;2022-08-21T04:45:05;16.8;96.7
43414;DHT22;29013;49.676;8.606;2022-08-21T04:50:31;16.9;96.7
43414;DHT22;29013;49.676;8.606;2022-08-21T04:55:52;16.9;96.8
43414;DHT22;29013;49.676;8.606;2022-08-21T05:01:19;17.0;96.8
43414;DHT22;29013;49.676;8.606;2022-08-21T05:06:46;16.9;97.0
43414;DHT22;29013;49.676;8.606;2022-08-21T05:12:12;16.9;96.7
43414;DHT22;29013;49.676;8.606;2022-08-21T05:17:40;17.1;96.9
43414;DHT22;29013;49.676;8.606;2022-08-21T05:23:07;17.2;96.8
43414;DHT22;29013;49.676;8.606;2022-08-21T05:28:31;17.2;96.7
43414;DHT22;29013;49.676;8.606;2022-08-21T05:33:57;17.2;96.9
43414;DHT22;29013;49.676;8.606;2022-08-21T05:39:24;17.3;97.0
43414;DHT22;29013;49.676;8.606;2022-08-21T05:44:51;17.4;96.6
43414;DHT22;29013;49.676;8.606;2022-08-21T05:50:12;17.6;96.6
43414;DHT22;29013;49.676;8.606;2022-08-21T05:55:39;17.7;96.4
43414;DHT22;29013;49.676;8.606;2022-08-21T06:01:05;17.8;96.9
43414;DHT22;29013;49.676;8.606;2022-08-21T06:06:32;18.0;96.1
43414;DHT22;29013;49.676;8.606;2022-08-21T06:11:55;18.1;95.6
43414;DHT22;29013;49.676;8.606;2022-08-21T06:17:19;18.2;95.3
43414;DHT22;29013;49.676;8.606;2022-08-21T06:22:44;18.4;95.1
43414;DHT22;29013;49.676;8.606;2022-08-21T06:28:10;18.5;95.4
43414;DHT22;29013;49.676;8.606;2022-08-21T06:33:38;18.7;95.5
43414;DHT22;29013;49.676;8.606;2022-08-21T06:39:06;18.8;94.8
43414;DHT22;29013;49.676;8.606;2022-08-21T06:44:32;19.1;94.5
43414;DHT22;29013;49.676;8.606;2022-08-21T06:49:58;19.4;93.8
43414;DHT22;29013;49.676;8.606;2022-08-21T06:55:26;19.7;92.9
43414;DHT22;29013;49.676;8.606;2022-08-21T07:00:55;19.9;93.1
43414;DHT22;29013;49.676;8.606;2022-08-21T07:06:20;20.2;92.1
43414;DHT22;29013;49.676;8.606;2022-08-21T07:11:47;20.7;92.0
43414;DHT22;29013;49.676;8.606;2022-08-21T07:17:12;21.0;90.9
43414;DHT22;29013;49.676;8.606;2022-08-21T07:22:40;21.2;90.5
43414;DHT22;29013;49.676;8.606;2022-08-21T07:28:07;21.5;88.8
43414;DHT22;29013;49.676;8.606;2022-08-21T07:33:35;21.7;89.5
43414;DHT22;29013;49.676;8.606;2022-08-21T07:39:12;22.0;86.0
43414;DHT22;29013;49.676;8.606;2022-08-21T07:44:37;22.5;85.7
43414;DHT22;29013;49.676;8.606;2022-08-21T07:50:04;22.8;82.8
43414;DHT22;29013;49.676;8.606;2022-08-21T07:55:29;22.9;84.5
43414;DHT22;29013;49.676;8.606;2022-08-21T08:00:53;23.2;84.5
43414;DHT22;29013;49.676;8.606;2022-08-21T08:06:18;23.4;80.9
43414;DHT22;29013;49.676;8.606;2022-08-21T08:11:46;23.4;79.8
43414;DHT22;29013;49.676;8.606;2022-08-21T08:17:11;23.7;85.5
43414;DHT22;29013;49.676;8.606;2022-08-21T08:22:33;24.2;79.1
43414;DHT22;29013;49.676;8.606;2022-08-21T08:28:01;24.4;79.2
43414;DHT22;29013;49.676;8.606;2022-08-21T08:33:27;24.9;79.6
43414;DHT22;29013;49.676;8.606;2022-08-21T08:38:54;25.6;79.2
43414;DHT22;29013;49.676;8.606;2022-08-21T08:44:22;26.1;73.4
43414;DHT22;29013;49.676;8.606;2022-08-21T08:49:49;26.0;72.3
43414;DHT22;29013;49.676;8.606;2022-08-21T08:55:13;26.4;74.4
43414;DHT22;29013;49.676;8.606;2022-08-21T09:00:37;26.8;73.2
43414;DHT22;29013;49.676;8.606;2022-08-21T09:06:03;26.9;72.0
43414;DHT22;29013;49.676;8.606;2022-08-21T09:11:28;27.0;71.0
43414;DHT22;29013;49.676;8.606;2022-08-21T09:16:53;27.3;70.4
43414;DHT22;29013;49.676;8.606;2022-08-21T09:22:16;27.5;70.3
43414;DHT22;29013;49.676;8.606;2022-08-21T09:27:36;28.0;66.9
43414;DHT22;29013;49.676;8.606;2022-08-21T09:32:58;28.3;66.9
43414;DHT22;29013;49.676;8.606;2022-08-21T09:38:28;28.4;59.1
43414;DHT22;29013;49.676;8.606;2022-08-21T09:43:53;28.2;61.8
43414;DHT22;29013;49.676;8.606;2022-08-21T09:49:25;28.2;56.4
43414;DHT22;29013;49.676;8.606;2022-08-21T09:54:37;28.4;58.2
43414;DHT22;29013;49.676;8.606;2022-08-21T10:00:06;28.7;55.0
43414;DHT22;29013;49.676;8.606;2022-08-21T10:05:21;28.6;56.8
43414;DHT22;29013;49.676;8.606;2022-08-21T10:10:42;29.0;57.2
43414;DHT22;29013;49.676;8.606;2022-08-21T10:16:15;28.9;55.5
43414;DHT22;29013;49.676;8.606;2022-08-21T10:21:30;29.0;55.5
43414;DHT22;29013;49.676;8.606;2022-08-21T10:26:54;29.2;57.9
43414;DHT22;29013;49.676;8.606;2022-08-21T10:32:20;29.8;56.3
43414;DHT22;29013;49.676;8.606;2022-08-21T10:37:46;30.1;54.4
43414;DHT22;29013;49.676;8.606;2022-08-21T10:43:10;30.1;52.3
43414;DHT22;29013;49.676;8.606;2022-08-21T10:48:36;29.8;53.5
43414;DHT22;29013;49.676;8.606;2022-08-21T10:53:57;29.5;52.1
43414;DHT22;29013;49.676;8.606;2022-08-21T10:59:26;29.5;52.5
43414;DHT22;29013;49.676;8.606;2022-08-21T11:04:48;29.3;52.1
43414;DHT22;29013;49.676;8.606;2022-08-21T11:10:13;29.3;49.9
43414;DHT22;29013;49.676;8.606;2022-08-21T11:15:39;29.1;51.8
43414;DHT22;29013;49.676;8.606;2022-08-21T11:21:12;29.1;50.8
43414;DHT22;29013;49.676;8.606;2022-08-21T11:26:32;28.5;50.9
43414;DHT22;29013;49.676;8.606;2022-08-21T11:32:04;28.6;50.0
43414;DHT22;29013;49.676;8.606;2022-08-21T11:37:39;28.7;50.5
43414;DHT22;29013;49.676;8.606;2022-08-21T11:43:00;29.0;49.5
43414;DHT22;29013;49.676;8.606;2022-08-21T11:48:33;28.9;50.8
43414;DHT22;29013;49.676;8.606;2022-08-21T11:53:59;28.8;49.3
43414;DHT22;29013;49.676;8.606;2022-08-21T11:59:29;28.5;50.2
43414;DHT22;29013;49.676;8.606;2022-08-21T12:04:56;28.9;49.4
43414;DHT22;29013;49.676;8.606;2022-08-21T12:10:30;29.0;46.8
43414;DHT22;29013;49.676;8.606;2022-08-21T12:15:49;28.8;47.6
43414;DHT22;29013;49.676;8.606;2022-08-21T12:21:24;28.6;48.9
43414;DHT22;29013;49.676;8.606;2022-08-21T12:26:52;28.7;48.8
43414;DHT22;29013;49.676;8.606;2022-08-21T12:32:25;28.9;48.3
43414;DHT22;29013;49.676;8.606;2022-08-21T12:37:56;28.8;48.5
43414;DHT22;29013;49.676;8.606;2022-08-21T12:43:26;28.3;48.8
43414;DHT22;29013;49.676;8.606;2022-08-21T12:48:45;28.4;49.2
43414;DHT22;29013;49.676;8.606;2022-08-21T12:54:07;28.7;49.8
43414;DHT22;29013;49.676;8.606;2022-08-21T12:59:36;28.5;49.0
43414;DHT22;29013;49.676;8.606;2022-08-21T13:05:04;28.6;48.6
43414;DHT22;29013;49.676;8.606;2022-08-21T13:10:31;28.5;47.8
43414;DHT22;29013;49.676;8.606;2022-08-21T13:15:58;28.4;48.7
43414;DHT22;29013;49.676;8.606;2022-08-21T13:21:28;28.5;48.5
43414;DHT22;29013;49.676;8.606;2022-08-21T13:26:56;28.7;47.9
43414;DHT22;29013;49.676;8.606;2022-08-21T13:32:20;29.0;47.4
43414;DHT22;29013;49.676;8.606;2022-08-21T13:37:48;28.8;48.2
43414;DHT22;29013;49.676;8.606;2022-08-21T13:43:15;28.9;48.1
43414;DHT22;29013;49.676;8.606;2022-08-21T13:48:40;29.0;47.9
43414;DHT22;29013;49.676;8.606;2022-08-21T13:54:21;28.5;48.1
43414;DHT22;29013;49.676;8.606;2022-08-21T13:59:41;28.5;48.1
43414;DHT22;29013;49.676;8.606;2022-08-21T14:05:03;28.2;48.3
43414;DHT22;29013;49.676;8.606;2022-08-21T14:10:26;28.1;48.2
43414;DHT22;29013;49.676;8.606;2022-08-21T14:15:58;27.8;48.3
43414;DHT22;29013;49.676;8.606;2022-08-21T14:21:31;27.6;48.8
43414;DHT22;29013;49.676;8.606;2022-08-21T14:26:54;28.1;48.5
43414;DHT22;29013;49.676;8.606;2022-08-21T14:32:20;28.1;49.1
43414;DHT22;29013;49.676;8.606;2022-08-21T14:37:46;27.9;48.4
43414;DHT22;29013;49.676;8.606;2022-08-21T14:43:13;27.9;48.2
43414;DHT22;29013;49.676;8.606;2022-08-21T14:48:42;27.8;47.3
43414;DHT22;29013;49.676;8.606;2022-08-21T14:54:10;27.7;48.6
43414;DHT22;29013;49.676;8.606;2022-08-21T14:59:37;27.7;48.2
43414;DHT22;29013;49.676;8.606;2022-08-21T15:05:04;27.5;48.2
43414;DHT22;29013;49.676;8.606;2022-08-21T15:10:34;27.8;47.8
43414;DHT22;29013;49.676;8.606;2022-08-21T15:15:59;27.8;48.3
43414;DHT22;29013;49.676;8.606;2022-08-21T15:21:27;27.7;47.8
43414;DHT22;29013;49.676;8.606;2022-08-21T15:26:53;27.6;47.9
43414;DHT22;29013;49.676;8.606;2022-08-21T15:32:21;27.4;47.6
43414;DHT22;29013;49.676;8.606;2022-08-21T15:37:48;27.4;47.8
43414;DHT22;29013;49.676;8.606;2022-08-21T15:43:18;27.4;47.6
43414;DHT22;29013;49.676;8.606;2022-08-21T15:48:39;27.4;47.9
43414;DHT22;29013;49.676;8.606;2022-08-21T15:54:07;27.4;48.1
43414;DHT22;29013;49.676;8.606;2022-08-21T15:59:36;27.3;48.3
43414;DHT22;29013;49.676;8.606;2022-08-21T16:04:57;27.4;48.4
43414;DHT22;29013;49.676;8.606;2022-08-21T16:10:23;27.3;48.1
43414;DHT22;29013;49.676;8.606;2022-08-21T16:15:50;27.2;48.6
43414;DHT22;29013;49.676;8.606;2022-08-21T16:21:16;27.2;48.1
43414;DHT22;29013;49.676;8.606;2022-08-21T16:26:41;27.2;49.2
43414;DHT22;29013;49.676;8.606;2022-08-21T16:32:04;27.2;48.1
43414;DHT22;29013;49.676;8.606;2022-08-21T16:37:25;27.2;48.6
43414;DHT22;29013;49.676;8.606;2022-08-21T16:42:51;27.2;48.6
43414;DHT22;29013;49.676;8.606;2022-08-21T16:48:19;27.1;47.9
43414;DHT22;29013;49.676;8.606;2022-08-21T16:53:47;27.1;49.6
43414;DHT22;29013;49.676;8.606;2022-08-21T16:59:10;27.0;49.4
43414;DHT22;29013;49.676;8.606;2022-08-21T17:04:37;26.9;48.7
43414;DHT22;29013;49.676;8.606;2022-08-21T17:10:06;26.9;49.6
43414;DHT22;29013;49.676;8.606;2022-08-21T17:15:32;26.7;51.0
43414;DHT22;29013;49.676;8.606;2022-08-21T17:20:57;26.6;51.4
43414;DHT22;29013;49.676;8.606;2022-08-21T17:26:22;26.5;51.9
43414;DHT22;29013;49.676;8.606;2022-08-21T17:31:50;26.4;51.8
43414;DHT22;29013;49.676;8.606;2022-08-21T17:37:11;26.2;54.3
43414;DHT22;29013;49.676;8.606;2022-08-21T17:42:40;26.0;60.1
43414;DHT22;29013;49.676;8.606;2022-08-21T17:48:07;25.7;61.4
43414;DHT22;29013;49.676;8.606;2022-08-21T17:53:46;25.4;62.5
43414;DHT22;29013;49.676;8.606;2022-08-21T17:59:15;25.1;64.9
43414;DHT22;29013;49.676;8.606;2022-08-21T18:04:43;24.8;67.4
43414;DHT22;29013;49.676;8.606;2022-08-21T18:10:12;24.5;67.1
43414;DHT22;29013;49.676;8.606;2022-08-21T18:15:40;24.2;69.0
43414;DHT22;29013;49.676;8.606;2022-08-21T18:21:07;23.9;70.4
43414;DHT22;29013;49.676;8.606;2022-08-21T18:26:34;23.8;67.1
43414;DHT22;29013;49.676;8.606;2022-08-21T18:31:59;23.8;66.6
43414;DHT22;29013;49.676;8.606;2022-08-21T18:37:28;23.7;66.0
43414;DHT22;29013;49.676;8.606;2022-08-21T18:42:56;23.7;59.5
43414;DHT22;29013;49.676;8.606;2022-08-21T18:48:23;23.9;58.4
43414;DHT22;29013;49.676;8.606;2022-08-21T18:53:48;23.9;58.2
43414;DHT22;29013;49.676;8.606;2022-08-21T18:59:19;24.0;57.9
43414;DHT22;29013;49.676;8.606;2022-08-21T19:04:41;23.9;57.4
43414;DHT22;29013;49.676;8.606;2022-08-21T19:10:13;23.8;57.7
43414;DHT22;29013;49.676;8.606;2022-08-21T19:15:37;23.8;57.9
43414;DHT22;29013;49.676;8.606;2022-08-21T19:20:59;23.7;58.1
43414;DHT22;29013;49.676;8.606;2022-08-21T19:26:22;23.5;58.5
43414;DHT22;29013;49.676;8.606;2022-08-21T19:31:49;23.5;58.6
43414;DHT22;29013;49.676;8.606;2022-08-21T19:37:21;23.4;58.7
43414;DHT22;29013;49.676;8.606;2022-08-21T19:42:48;23.4;58.9
43414;DHT22;29013;49.676;8.606;2022-08-21T19:48:14;23.3;59.0
43414;DHT22;29013;49.676;8.606;2022-08-21T19:53:38;23.2;58.9
43414;DHT22;29013;49.676;8.606;2022-08-21T19:59:03;23.1;59.4
43414;DHT22;29013;49.676;8.606;2022-08-21T20:04:28;22.8;59.6
43414;DHT22;29013;49.676;8.606;2022-08-21T20:09:53;22.8;60.0
43414;DHT22;29013;49.676;8.606;2022-08-21T20:15:31;22.6;59.4
43414;DHT22;29013;49.676;8.606;2022-08-21T20:20:55;22.7;60.0
43414;DHT22;29013;49.676;8.606;2022-08-21T20:26:22;22.7;60.0
43414;DHT22;29013;49.676;8.606;2022-08-21T20:31:47;22.6;60.2
43414;DHT22;29013;49.676;8.606;2022-08-21T20:37:12;22.4;65.0
43414;DHT22;29013;49.676;8.606;2022-08-21T20:42:40;22.2;64.3
43414;DHT22;29013;49.676;8.606;2022-08-21T20:48:08;22.0;65.0
43414;DHT22;29013;49.676;8.606;2022-08-21T20:53:34;21.9;63.8
43414;DHT22;29013;49.676;8.606;2022-08-21T20:58:59;22.0;63.2
43414;DHT22;29013;49.676;8.606;2022-08-21T21:04:23;21.9;65.2
43414;DHT22;29013;49.676;8.606;2022-08-21T21:09:44;21.8;65.3
43414;DHT22;29013;49.676;8.606;2022-08-21T21:15:14;21.7;66.1
43414;DHT22;29013;49.676;8.606;2022-08-21T21:20:39;21.7;64.6
43414;DHT22;29013;49.676;8.606;2022-08-21T21:26:13;21.6;64.1
43414;DHT22;29013;49.676;8.606;2022-08-21T21:31:33;21.8;62.7
43414;DHT22;29013;49.676;8.606;2022-08-21T21:37:01;21.8;62.6
43414;DHT22;29013;49.676;8.606;2022-08-21T21:42:22;21.7;62.6
43414;DHT22;29013;49.676;8.606;2022-08-21T21:47:53;21.6;66.1
43414;DHT22;29013;49.676;8.606;2022-08-21T21:53:28;21.5;66.2
43414;DHT22;29013;49.676;8.606;2022-08-21T21:59:00;21.4;65.8
43414;DHT22;29013;49.676;8.606;2022-08-21T22:04:26;21.4;66.7
43414;DHT22;29013;49.676;8.606;2022-08-21T22:09:52;21.2;69.1
43414;DHT22;29013;49.676;8.606;2022-08-21T22:15:12;20.9;68.5
43414;DHT22;29013;49.676;8.606;2022-08-21T22:20:41;20.6;70.7
43414;DHT22;29013;49.676;8.606;2022-08-21T22:26:11;20.5;72.4
43414;DHT22;29013;49.676;8.606;2022-08-21T22:31:34;20.5;71.6
43414;DHT22;29013;49.676;8.606;2022-08-21T22:36:58;20.3;70.5
43414;DHT22;29013;49.676;8.606;2022-08-21T22:42:24;20.2;71.4
43414;DHT22;29013;49.676;8.606;2022-08-21T22:47:49;19.9;71.3
43414;DHT22;29013;49.676;8.606;2022-08-21T22:53:21;19.8;71.5
43414;DHT22;29013;49.676;8.606;2022-08-21T22:58:53;19.8;71.3
43414;DHT22;29013;49.676;8.606;2022-08-21T23:04:20;19.9;70.6
43414;DHT22;29013;49.676;8.606;2022-08-21T23:09:45;20.0;70.4
43414;DHT22;29013;49.676;8.606;2022-08-21T23:15:08;20.0;70.1
43414;DHT22;29013;49.676;8.606;2022-08-21T23:20:29;20.1;71.3
43414;DHT22;29013;49.676;8.606;2022-08-21T23:25:56;20.0;71.6
43414;DHT22;29013;49.676;8.606;2022-08-21T23:31:22;20.0;71.8
43414;DHT22;29013;49.676;8.606;2022-08-21T23:36:57;19.9;72.2
43414;DHT22;29013;49.676;8.606;2022-08-21T23:42:29;19.8;72.5
43414;DHT22;29013;49.676;8.606;2022-08-21T23:47:49;19.8;72.7
43414;DHT22;29013;49.676;8.606;2022-08-21T23:53:24;19.8;72.9
43414;DHT22;29013;49.676;8.606;2022-08-21T23:58:47;19.7;73.0
